Time;durP1;ratioP1;P1;durP2;ratioP2;P2;SDS_P1;SDS_P2;PMS_P1;PMS_P2;Temp;Humidity;BMP_temperature;BMP_pressure;BME280_temperature;BME280_humidity;BME280_pressure;Samples;Min_cycle;Max_cycle;Signal;HPM_P1;HPM_P2
2022/12/18 00:01:05;;;;;;;35.50;16.35;;;;;;;;;;4896581;29;20050;-58
2022/12/18 00:03:35;;;;;;;31.80;16.58;;;;;;;;;;4896354;29;20410;-58
2022/12/18 00:06:02;;;;;;;38.10;16.23;;;;;;;;;;4895738;29;20068;-59
2022/12/18 00:08:29;;;;;;;38.35;17.25;;;;;;;;;;4896298;29;20045;-58
2022/12/18 00:10:55;;;;;;;35.88;17.15;;;;;;;;;;4896488;29;20135;-58
2022/12/18 00:13:26;;;;;;;33.97;16.17;;;;;;;;;;4898809;29;20493;-56
2022/12/18 00:15:53;;;;;;;39.13;17.63;;;;;;;;;;4899197;29;20060;-58
2022/12/18 00:18:22;;;;;;;33.65;16.45;;;;;;;;;;4899791;29;20051;-60
2022/12/18 00:20:48;;;;;;;36.97;17.52;;;;;;;;;;4899607;29;20045;-59
2022/12/18 00:23:14;;;;;;;37.15;17.48;;;;;;;;;;4899365;29;20081;-60
2022/12/18 00:25:41;;;;;;;33.85;16.23;;;;;;;;;;4899435;29;20045;-60
2022/12/18 00:28:07;;;;;;;32.88;17.42;;;;;;;;;;4900112;29;20052;-58
2022/12/18 00:30:34;;;;;;;36.47;18.35;;;;;;;;;;4899596;29;20056;-60
2022/12/18 00:33:00;;;;;;;31.48;15.70;;;;;;;;;;4899651;29;20044;-57
2022/12/18 00:35:26;;;;;;;37.13;17.70;;;;;;;;;;4882368;29;20590;-56
2022/12/18 00:37:53;;;;;;;32.67;17.15;;;;;;;;;;4882621;29;20049;-58
2022/12/18 00:40:19;;;;;;;37.97;18.00;;;;;;;;;;4899446;29;20108;-60
2022/12/18 00:42:55;;;;;;;33.30;16.27;;;;;;;;;;4882514;29;20056;-57
2022/12/18 00:45:22;;;;;;;35.50;16.15;;;;;;;;;;4899093;29;20073;-58
2022/12/18 00:47:49;;;;;;;37.17;16.58;;;;;;;;;;4882585;29;20061;-60
2022/12/18 00:50:15;;;;;;;41.53;17.75;;;;;;;;;;4899201;29;20040;-59
2022/12/18 00:52:42;;;;;;;39.20;17.80;;;;;;;;;;4899227;29;20500;-59
2022/12/18 00:55:09;;;;;;;37.45;16.00;;;;;;;;;;4881745;29;20049;-57
2022/12/18 00:57:35;;;;;;;37.78;17.63;;;;;;;;;;4883954;29;20048;-56
2022/12/18 01:00:03;;;;;;;35.53;16.88;;;;;;;;;;4899350;29;20119;-57
2022/12/18 01:02:30;;;;;;;31.50;16.23;;;;;;;;;;4898930;29;20044;-57
2022/12/18 01:04:56;;;;;;;42.28;17.73;;;;;;;;;;4881742;29;20482;-57
2022/12/18 01:07:23;;;;;;;38.05;16.65;;;;;;;;;;4881868;29;20104;-57
2022/12/18 01:09:49;;;;;;;34.83;17.08;;;;;;;;;;4898866;29;20044;-58
2022/12/18 01:12:15;;;;;;;38.67;17.58;;;;;;;;;;4882258;29;20052;-58
2022/12/18 01:14:42;;;;;;;44.88;18.95;;;;;;;;;;4882157;29;20108;-59
2022/12/18 01:17:08;;;;;;;41.90;19.00;;;;;;;;;;4898646;29;20048;-59
2022/12/18 01:19:35;;;;;;;41.00;18.85;;;;;;;;;;4899320;29;20055;-59
2022/12/18 01:22:03;;;;;;;39.55;18.00;;;;;;;;;;4866684;29;20048;-57
2022/12/18 01:24:29;;;;;;;42.33;18.25;;;;;;;;;;4898529;29;20045;-58
2022/12/18 01:26:57;;;;;;;37.40;19.05;;;;;;;;;;4897891;29;20439;-58
2022/12/18 01:29:23;;;;;;;39.35;19.20;;;;;;;;;;4898844;29;20040;-57
2022/12/18 01:31:49;;;;;;;42.47;19.83;;;;;;;;;;4898457;29;20088;-58
2022/12/18 01:34:16;;;;;;;36.28;18.30;;;;;;;;;;4898529;29;20040;-58
2022/12/18 01:36:42;;;;;;;41.42;18.00;;;;;;;;;;4881038;29;20053;-58
2022/12/18 01:39:12;;;;;;;43.65;19.67;;;;;;;;;;4898288;29;20053;-58
2022/12/18 01:44:44;;;;;;;41.95;19.35;;;;;;;;;;4898541;29;20114;-58
2022/12/18 01:47:14;;;;;;;41.92;18.92;;;;;;;;;;4897843;29;20383;-57
2022/12/18 01:49:41;;;;;;;41.67;17.88;;;;;;;;;;4881480;29;20044;-57
2022/12/18 01:52:08;;;;;;;41.10;17.80;;;;;;;;;;4898302;29;20049;-58
2022/12/18 01:54:34;;;;;;;36.70;17.60;;;;;;;;;;4881265;29;20085;-58
2022/12/18 01:57:01;;;;;;;38.30;16.90;;;;;;;;;;4880514;29;20054;-57
2022/12/18 01:59:29;;;;;;;37.10;17.45;;;;;;;;;;4881198;29;20135;-57
2022/12/18 02:01:59;;;;;;;31.80;17.10;;;;;;;;;;4897630;29;20128;-57
2022/12/18 02:04:27;;;;;;;40.35;17.55;;;;;;;;;;4897883;29;20044;-58
2022/12/18 02:07:01;;;;;;;34.63;18.13;;;;;;;;;;4880299;29;20101;-57
2022/12/18 02:09:32;;;;;;;32.55;16.00;;;;;;;;;;4865775;29;20514;-58
2022/12/18 02:12:03;;;;;;;36.22;17.75;;;;;;;;;;4880883;29;20040;-58
2022/12/18 02:14:37;;;;;;;34.72;17.08;;;;;;;;;;4881027;29;20049;-58
2022/12/18 02:17:04;;;;;;;;;;;;;;;;;;4900431;29;20120;-57
2022/12/18 02:19:47;;;;;;;40.50;18.10;;;;;;;;;;4887210;29;19924;-57
2022/12/18 02:22:24;;;;;;;34.22;17.00;;;;;;;;;;4901504;29;20051;-57
2022/12/18 02:25:14;;;;;;;36.67;18.48;;;;;;;;;;4897954;29;20048;-58
2022/12/18 02:27:41;;;;;;;40.08;17.75;;;;;;;;;;4873104;29;20045;-58
2022/12/18 02:30:08;;;;;;;36.70;18.02;;;;;;;;;;4880451;29;20051;-58
2022/12/18 02:32:41;;;;;;;34.50;18.60;;;;;;;;;;4897573;29;20044;-57
2022/12/18 02:35:11;;;;;;;38.13;17.83;;;;;;;;;;4880486;29;20051;-57
2022/12/18 02:37:39;;;;;;;37.28;17.88;;;;;;;;;;4865542;29;20068;-55
2022/12/18 02:40:07;;;;;;;37.45;17.60;;;;;;;;;;4897578;29;20391;-56
2022/12/18 02:42:35;;;;;;;40.28;18.35;;;;;;;;;;4880492;29;20053;-56
2022/12/18 02:45:04;;;;;;;39.85;19.33;;;;;;;;;;4880335;29;20056;-55
2022/12/18 02:47:33;;;;;;;38.00;18.13;;;;;;;;;;4880276;29;20556;-57
2022/12/18 02:50:00;;;;;;;33.17;17.60;;;;;;;;;;4880946;29;20057;-56
2022/12/18 02:52:45;;;;;;;33.17;15.98;;;;;;;;;;4880158;29;20045;-56
2022/12/18 02:55:28;;;;;;;37.65;16.83;;;;;;;;;;4880905;29;20072;-57
2022/12/18 02:58:15;;;;;;;37.45;16.25;;;;;;;;;;4881511;29;20061;-57
2022/12/18 03:00:53;;;;;;;36.63;16.38;;;;;;;;;;4881320;29;20052;-57
2022/12/18 03:03:29;;;;;;;36.65;16.90;;;;;;;;;;4881159;29;20414;-57
2022/12/18 03:05:59;;;;;;;38.97;17.70;;;;;;;;;;4881220;29;20481;-57
2022/12/18 03:08:28;;;;;;;33.40;16.75;;;;;;;;;;4897462;29;20052;-57
2022/12/18 03:11:05;;;;;;;35.53;17.67;;;;;;;;;;4881395;29;20048;-57
2022/12/18 03:13:38;;;;;;;44.10;18.15;;;;;;;;;;4865324;29;20446;-55
2022/12/18 03:16:08;;;;;;;33.60;16.85;;;;;;;;;;4863991;29;20098;-58
2022/12/18 03:18:40;;;;;;;37.70;16.52;;;;;;;;;;4896827;29;20044;-55
2022/12/18 03:21:07;;;;;;;36.33;17.83;;;;;;;;;;4896648;29;20116;-56
2022/12/18 03:23:47;;;;;;;40.90;19.27;;;;;;;;;;4864688;29;20063;-56
2022/12/18 03:26:18;;;;;;;34.90;16.65;;;;;;;;;;4879467;29;20048;-57
2022/12/18 03:28:52;;;;;;;36.78;17.83;;;;;;;;;;4880008;29;20048;-57
2022/12/18 03:31:21;;;;;;;39.47;18.65;;;;;;;;;;4879781;29;20491;-57
2022/12/18 03:33:58;;;;;;;41.17;17.83;;;;;;;;;;4896625;29;20397;-57
2022/12/18 03:36:34;;;;;;;28.27;13.70;;;;;;;;;;4879299;29;20068;-59
2022/12/18 03:39:01;;;;;;;38.33;18.55;;;;;;;;;;4880051;29;20413;-59
2022/12/18 03:41:33;;;;;;;36.88;17.45;;;;;;;;;;4879911;29;20048;-58
2022/12/18 03:44:28;;;;;;;35.95;17.48;;;;;;;;;;4895495;29;20053;-59
2022/12/18 03:47:02;;;;;;;37.15;17.52;;;;;;;;;;4881058;29;20049;-59
2022/12/18 03:49:47;;;;;;;41.13;17.88;;;;;;;;;;4883245;29;20052;-59
2022/12/18 03:52:29;;;;;;;39.85;17.75;;;;;;;;;;4883258;29;20045;-59
2022/12/18 03:54:57;;;;;;;36.63;17.88;;;;;;;;;;4883027;29;20418;-59
2022/12/18 03:57:25;;;;;;;43.67;18.20;;;;;;;;;;4883045;29;20056;-59
2022/12/18 03:59:59;;;;;;;37.13;16.95;;;;;;;;;;4883466;29;20409;-59
2022/12/18 04:02:29;;;;;;;39.83;17.52;;;;;;;;;;4883989;29;20052;-60
2022/12/18 04:05:00;;;;;;;41.25;18.17;;;;;;;;;;4883297;29;20511;-60
2022/12/18 04:07:27;;;;;;;39.80;18.65;;;;;;;;;;4883475;29;20472;-59
2022/12/18 04:09:58;;;;;;;41.13;18.15;;;;;;;;;;4883601;29;20096;-60
2022/12/18 04:12:28;;;;;;;38.83;18.52;;;;;;;;;;4883519;29;20075;-60
2022/12/18 04:14:55;;;;;;;39.63;18.38;;;;;;;;;;4883246;29;20077;-60
2022/12/18 04:17:22;;;;;;;34.08;16.33;;;;;;;;;;4899675;29;20097;-62
2022/12/18 04:19:49;;;;;;;33.80;18.10;;;;;;;;;;4900389;29;20456;-60
2022/12/18 04:22:16;;;;;;;35.63;16.98;;;;;;;;;;4883623;29;20053;-58
2022/12/18 04:24:46;;;;;;;29.33;15.68;;;;;;;;;;4883721;29;20421;-59
2022/12/18 04:27:29;;;;;;;31.08;15.70;;;;;;;;;;4883380;29;20417;-60
2022/12/18 04:29:57;;;;;;;39.28;17.55;;;;;;;;;;4868124;29;20474;-59
2022/12/18 04:32:24;;;;;;;36.25;16.65;;;;;;;;;;4899980;29;20037;-60
2022/12/18 04:34:50;;;;;;;39.38;17.90;;;;;;;;;;4867771;29;20040;-60
2022/12/18 04:37:17;;;;;;;36.38;17.48;;;;;;;;;;4899448;29;20056;-60
2022/12/18 04:39:44;;;;;;;36.63;17.38;;;;;;;;;;4867909;29;20135;-60
2022/12/18 04:42:19;;;;;;;35.13;16.75;;;;;;;;;;4883009;29;20063;-60
2022/12/18 04:44:45;;;;;;;31.20;16.23;;;;;;;;;;4883065;29;20056;-60
2022/12/18 04:47:11;;;;;;;31.98;16.13;;;;;;;;;;4899526;29;20048;-60
2022/12/18 04:49:38;;;;;;;34.90;16.27;;;;;;;;;;4900059;29;20442;-60
2022/12/18 04:52:07;;;;;;;33.55;17.17;;;;;;;;;;4883006;29;20105;-60
2022/12/18 04:54:34;;;;;;;31.90;15.45;;;;;;;;;;4899751;29;20100;-60
2022/12/18 04:57:00;;;;;;;31.80;16.67;;;;;;;;;;4899513;29;20045;-60
2022/12/18 04:59:26;;;;;;;35.47;16.58;;;;;;;;;;4899289;29;20118;-60
2022/12/18 05:01:53;;;;;;;36.13;15.98;;;;;;;;;;5305465;23;20052;-61
2022/12/18 05:04:19;;;;;;;36.35;17.38;;;;;;;;;;4882635;29;20049;-61
2022/12/18 05:06:46;;;;;;;33.53;16.63;;;;;;;;;;4898612;29;20541;-64
2022/12/18 05:09:13;;;;;;;33.92;15.68;;;;;;;;;;4899349;29;20044;-61
2022/12/18 05:11:39;;;;;;;34.92;15.68;;;;;;;;;;4895165;29;20045;-60
2022/12/18 05:14:06;;;;;;;35.95;17.05;;;;;;;;;;4863834;29;20057;-59
2022/12/18 05:16:32;;;;;;;39.60;18.08;;;;;;;;;;4895319;23;20032;-61
2022/12/18 05:18:59;;;;;;;34.22;17.77;;;;;;;;;;4917961;29;20496;-61
2022/12/18 05:21:25;;;;;;;43.17;18.35;;;;;;;;;;4901061;29;20075;-62
2022/12/18 05:23:52;;;;;;;38.42;17.83;;;;;;;;;;4917803;29;20091;-58
2022/12/18 05:26:18;;;;;;;39.15;18.90;;;;;;;;;;4899351;29;20048;-60
2022/12/18 05:28:45;;;;;;;39.50;18.75;;;;;;;;;;4900150;29;20485;-60
2022/12/18 05:31:12;;;;;;;36.70;18.75;;;;;;;;;;4900949;29;20048;-60
2022/12/18 05:33:39;;;;;;;37.60;17.13;;;;;;;;;;4900191;29;20093;-60
2022/12/18 05:36:07;;;;;;;39.97;17.83;;;;;;;;;;4899330;29;20564;-60
2022/12/18 05:38:35;;;;;;;38.65;17.92;;;;;;;;;;4883791;29;20044;-60
2022/12/18 05:41:01;;;;;;;34.72;17.00;;;;;;;;;;4902425;29;20565;-60
2022/12/18 05:43:28;;;;;;;40.83;18.75;;;;;;;;;;4904141;29;20059;-61
2022/12/18 05:45:56;;;;;;;40.00;18.10;;;;;;;;;;4900881;29;20085;-59
2022/12/18 05:48:23;;;;;;;39.72;17.92;;;;;;;;;;4883146;29;20040;-60
2022/12/18 05:50:50;;;;;;;38.22;17.33;;;;;;;;;;4897692;29;20048;-60
2022/12/18 05:53:17;;;;;;;40.65;18.73;;;;;;;;;;4898552;29;20040;-60
2022/12/18 05:55:44;;;;;;;39.28;18.05;;;;;;;;;;4881434;29;20040;-60
2022/12/18 05:58:11;;;;;;;39.33;17.25;;;;;;;;;;4898315;29;20104;-60
2022/12/18 06:00:41;;;;;;;36.30;16.80;;;;;;;;;;4898255;29;20108;-60
2022/12/18 06:03:09;;;;;;;36.95;18.70;;;;;;;;;;4898381;29;20461;-60
2022/12/18 06:05:40;;;;;;;37.83;19.23;;;;;;;;;;4880967;29;20505;-59
2022/12/18 06:08:06;;;;;;;46.08;20.92;;;;;;;;;;4897954;29;20405;-59
2022/12/18 06:10:33;;;;;;;40.90;20.17;;;;;;;;;;4897210;29;20068;-59
2022/12/18 06:12:59;;;;;;;47.70;21.55;;;;;;;;;;4898097;29;20040;-60
2022/12/18 06:15:26;;;;;;;43.30;20.80;;;;;;;;;;4897587;29;20047;-60
2022/12/18 06:17:52;;;;;;;41.60;21.13;;;;;;;;;;4897888;29;20044;-60
2022/12/18 06:20:18;;;;;;;38.63;18.83;;;;;;;;;;4897998;29;20048;-60
2022/12/18 06:22:45;;;;;;;42.25;18.35;;;;;;;;;;4881307;29;20104;-59
2022/12/18 06:25:11;;;;;;;36.63;18.92;;;;;;;;;;4897239;29;20100;-59
2022/12/18 06:27:38;;;;;;;34.92;17.50;;;;;;;;;;4897721;29;20044;-59
2022/12/18 06:30:05;;;;;;;40.90;19.05;;;;;;;;;;4881267;29;20051;-60
2022/12/18 06:32:32;;;;;;;35.03;16.45;;;;;;;;;;4897875;29;20088;-59
2022/12/18 06:34:58;;;;;;;37.22;17.20;;;;;;;;;;4897566;29;20096;-60
2022/12/18 06:37:25;;;;;;;31.95;16.73;;;;;;;;;;4897223;29;20592;-58
2022/12/18 06:39:53;;;;;;;35.55;16.73;;;;;;;;;;4897982;29;20081;-59
2022/12/18 06:42:19;;;;;;;38.47;19.17;;;;;;;;;;4880712;29;20048;-60
2022/12/18 06:44:47;;;;;;;42.72;20.25;;;;;;;;;;4897787;29;20048;-59
2022/12/18 06:47:13;;;;;;;41.13;19.52;;;;;;;;;;4880503;29;20041;-60
2022/12/18 06:49:40;;;;;;;42.58;19.42;;;;;;;;;;4897534;29;20103;-61
2022/12/18 06:52:06;;;;;;;37.30;18.45;;;;;;;;;;4897778;29;20048;-60
2022/12/18 06:54:32;;;;;;;36.28;16.92;;;;;;;;;;4881055;29;20445;-60
2022/12/18 06:56:59;;;;;;;42.13;19.45;;;;;;;;;;4896514;29;20104;-60
2022/12/18 06:59:25;;;;;;;42.78;19.85;;;;;;;;;;4897351;29;20052;-60
2022/12/18 07:01:53;;;;;;;35.42;18.25;;;;;;;;;;4897294;29;20048;-59
2022/12/18 07:04:20;;;;;;;40.47;18.65;;;;;;;;;;4897208;29;20048;-59
2022/12/18 07:06:46;;;;;;;39.15;18.80;;;;;;;;;;4896681;29;20083;-58
2022/12/18 07:09:12;;;;;;;36.92;18.02;;;;;;;;;;4897222;29;20100;-61
2022/12/18 07:11:39;;;;;;;40.47;18.85;;;;;;;;;;4897104;29;20494;-60
2022/12/18 07:14:05;;;;;;;37.70;18.55;;;;;;;;;;4897410;29;20592;-59
2022/12/18 07:16:31;;;;;;;41.13;19.10;;;;;;;;;;4879632;29;20048;-60
2022/12/18 07:18:58;;;;;;;42.10;18.10;;;;;;;;;;4880735;29;20123;-59
2022/12/18 07:21:25;;;;;;;37.97;17.48;;;;;;;;;;4896843;29;20049;-59
2022/12/18 07:23:51;;;;;;;40.95;18.52;;;;;;;;;;4880577;29;20489;-60
2022/12/18 07:26:19;;;;;;;36.47;17.58;;;;;;;;;;4896401;29;20055;-59
2022/12/18 07:28:45;;;;;;;39.17;18.77;;;;;;;;;;4880300;29;20037;-60
2022/12/18 07:31:19;;;;;;;38.97;18.25;;;;;;;;;;4897015;29;20088;-59
2022/12/18 07:33:47;;;;;;;41.72;17.95;;;;;;;;;;4896985;29;20044;-59
2022/12/18 07:36:14;;;;;;;41.20;18.92;;;;;;;;;;4896630;29;20048;-59
2022/12/18 07:38:40;;;;;;;38.03;17.67;;;;;;;;;;4896956;29;20104;-58
2022/12/18 07:41:08;;;;;;;42.20;18.73;;;;;;;;;;4897556;29;20072;-59
2022/12/18 07:43:35;;;;;;;38.10;16.83;;;;;;;;;;4897939;29;20044;-59
2022/12/18 07:46:02;;;;;;;40.67;18.10;;;;;;;;;;4880522;29;20048;-60
2022/12/18 07:48:29;;;;;;;38.30;18.85;;;;;;;;;;4880025;29;20147;-60
2022/12/18 07:50:59;;;;;;;36.67;17.83;;;;;;;;;;4880424;29;20065;-60
2022/12/18 07:53:26;;;;;;;36.70;16.88;;;;;;;;;;4897086;29;20183;-59
2022/12/18 07:55:56;;;;;;;35.05;16.00;;;;;;;;;;4879732;29;20045;-60
2022/12/18 07:58:44;;;;;;;40.50;16.55;;;;;;;;;;4896914;29;20513;-60
2022/12/18 08:01:11;;;;;;;38.72;18.23;;;;;;;;;;4896725;29;20049;-60
2022/12/18 08:03:39;;;;;;;34.58;16.08;;;;;;;;;;4896686;29;20131;-61
2022/12/18 08:06:08;;;;;;;56.17;24.73;;;;;;;;;;4879250;29;20048;-59
2022/12/18 08:08:35;;;;;;;34.83;18.40;;;;;;;;;;4896637;29;20048;-60
2022/12/18 08:11:02;;;;;;;45.45;18.75;;;;;;;;;;4896934;29;20497;-60
2022/12/18 08:13:28;;;;;;;38.60;17.80;;;;;;;;;;4880001;29;20045;-61
2022/12/18 08:15:59;;;;;;;37.92;17.58;;;;;;;;;;4896068;29;20044;-60
2022/12/18 08:18:25;;;;;;;36.65;17.92;;;;;;;;;;4896372;29;20048;-60
2022/12/18 08:20:52;;;;;;;39.80;18.80;;;;;;;;;;4896650;29;20045;-60
2022/12/18 08:23:18;;;;;;;42.30;20.02;;;;;;;;;;4879833;29;20048;-60
2022/12/18 08:25:45;;;;;;;35.10;17.35;;;;;;;;;;4895896;29;20045;-60
2022/12/18 08:28:11;;;;;;;39.63;18.55;;;;;;;;;;4896311;29;20052;-60
2022/12/18 08:30:37;;;;;;;39.15;18.58;;;;;;;;;;4879957;29;20107;-60
2022/12/18 08:33:04;;;;;;;40.83;17.42;;;;;;;;;;4879979;29;20087;-60
2022/12/18 08:35:34;;;;;;;36.47;18.33;;;;;;;;;;4899402;29;20053;-60
2022/12/18 08:38:06;;;;;;;33.35;17.25;;;;;;;;;;4899816;29;20059;-59
2022/12/18 08:40:33;;;;;;;36.22;17.63;;;;;;;;;;4883084;29;20052;-61
2022/12/18 08:45:44;;;;;;;37.05;16.83;;;;;;;;;;4899234;29;20051;-60
2022/12/18 08:48:10;;;;;;;40.55;18.60;;;;;;;;;;4899582;29;20150;-60
2022/12/18 08:50:36;;;;;;;41.10;19.98;;;;;;;;;;4883166;29;20040;-59
2022/12/18 08:53:03;;;;;;;41.05;18.42;;;;;;;;;;4899764;29;20101;-59
2022/12/18 08:55:29;;;;;;;38.20;18.90;;;;;;;;;;4898944;29;20104;-62
2022/12/18 08:57:56;;;;;;;40.88;19.27;;;;;;;;;;4899573;29;20100;-60
2022/12/18 09:00:22;;;;;;;48.33;20.83;;;;;;;;;;4899730;29;20441;-61
2022/12/18 09:02:49;;;;;;;47.60;21.92;;;;;;;;;;4900067;29;20505;-60
2022/12/18 09:05:15;;;;;;;46.97;21.67;;;;;;;;;;4898916;29;20324;-59
2022/12/18 09:07:42;;;;;;;45.10;22.42;;;;;;;;;;4899194;29;20465;-59
2022/12/18 09:10:08;;;;;;;45.28;20.70;;;;;;;;;;4899359;29;20100;-59
2022/12/18 09:12:35;;;;;;;47.88;22.58;;;;;;;;;;4899600;29;20044;-61
2022/12/18 09:15:01;;;;;;;40.55;22.58;;;;;;;;;;4882026;29;20045;-59
2022/12/18 09:17:27;;;;;;;51.95;22.45;;;;;;;;;;4899233;29;20037;-60
2022/12/18 09:19:54;;;;;;;41.13;22.63;;;;;;;;;;4899997;29;20044;-61
2022/12/18 09:22:20;;;;;;;45.15;22.25;;;;;;;;;;4899455;29;20104;-61
2022/12/18 09:24:48;;;;;;;46.85;22.67;;;;;;;;;;4899533;29;20497;-61
2022/12/18 09:27:14;;;;;;;47.47;23.17;;;;;;;;;;4898643;29;20099;-62
2022/12/18 09:29:41;;;;;;;44.20;21.92;;;;;;;;;;4899041;29;20044;-62
2022/12/18 09:32:07;;;;;;;43.10;22.38;;;;;;;;;;4899087;29;20045;-59
2022/12/18 09:34:34;;;;;;;46.00;21.48;;;;;;;;;;4899010;29;20037;-62
2022/12/18 09:37:00;;;;;;;41.60;23.10;;;;;;;;;;4881515;29;20080;-61
2022/12/18 09:39:26;;;;;;;45.83;22.80;;;;;;;;;;4899022;29;20088;-62
2022/12/18 09:41:54;;;;;;;44.50;22.67;;;;;;;;;;4898919;29;20457;-60
2022/12/18 09:44:23;;;;;;;45.80;21.83;;;;;;;;;;4881967;29;20706;-61
2022/12/18 09:47:11;;;;;;;44.50;23.15;;;;;;;;;;4898152;29;20422;-59
2022/12/18 09:49:40;;;;;;;45.85;22.25;;;;;;;;;;4898753;29;20104;-60
2022/12/18 09:52:12;;;;;;;50.13;24.45;;;;;;;;;;4899046;29;20119;-59
2022/12/18 09:54:44;;;;;;;51.30;25.40;;;;;;;;;;4898830;29;20049;-60
2022/12/18 09:57:15;;;;;;;44.72;23.63;;;;;;;;;;4881196;29;20100;-63
2022/12/18 09:59:43;;;;;;;45.40;25.05;;;;;;;;;;4882070;29;20513;-61
2022/12/18 10:02:13;;;;;;;52.25;26.10;;;;;;;;;;4898858;29;20052;-61
2022/12/18 10:04:39;;;;;;;49.33;24.50;;;;;;;;;;4882049;29;20147;-60
2022/12/18 10:07:19;;;;;;;49.15;25.23;;;;;;;;;;4897686;29;20052;-61
2022/12/18 10:09:51;;;;;;;47.08;23.75;;;;;;;;;;4881564;29;20108;-61
2022/12/18 10:12:24;;;;;;;48.95;24.08;;;;;;;;;;4881511;29;20049;-60
2022/12/18 10:14:50;;;;;;;50.63;24.55;;;;;;;;;;4898350;29;20044;-60
2022/12/18 10:17:35;;;;;;;45.20;23.25;;;;;;;;;;4897522;29;20045;-61
2022/12/18 10:20:01;;;;;;;47.25;23.15;;;;;;;;;;4898408;29;20055;-62
2022/12/18 10:22:28;;;;;;;51.80;25.35;;;;;;;;;;4898099;29;20045;-60
2022/12/18 10:25:01;;;;;;;50.25;25.55;;;;;;;;;;4898171;29;20080;-60
2022/12/18 10:27:28;;;;;;;49.75;25.17;;;;;;;;;;4881160;29;20061;-60
2022/12/18 10:29:55;;;;;;;50.92;26.42;;;;;;;;;;4865698;29;20040;-61
2022/12/18 10:32:23;;;;;;;46.47;24.13;;;;;;;;;;4897767;29;20045;-60
2022/12/18 10:34:50;;;;;;;48.15;24.13;;;;;;;;;;4898036;29;20506;-61
2022/12/18 10:37:26;;;;;;;42.90;23.75;;;;;;;;;;4882163;29;20048;-61
2022/12/18 10:40:09;;;;;;;43.58;23.95;;;;;;;;;;4897826;29;20117;-61
2022/12/18 10:42:36;;;;;;;43.05;23.20;;;;;;;;;;4881257;29;20056;-61
2022/12/18 10:45:13;;;;;;;48.00;25.65;;;;;;;;;;4897527;29;20134;-61
2022/12/18 10:47:45;;;;;;;46.53;23.90;;;;;;;;;;4880867;29;20089;-61
2022/12/18 10:50:25;;;;;;;46.05;24.55;;;;;;;;;;4880802;29;20565;-61
2022/12/18 10:53:18;;;;;;;43.17;22.98;;;;;;;;;;4884385;29;20045;-61
2022/12/18 10:55:46;;;;;;;53.50;26.08;;;;;;;;;;4880616;29;20068;-59
2022/12/18 10:58:17;;;;;;;46.97;24.02;;;;;;;;;;4881079;29;20485;-59
2022/12/18 11:01:10;;;;;;;43.42;23.73;;;;;;;;;;4897858;29;20068;-61
2022/12/18 11:03:39;;;;;;;49.08;25.10;;;;;;;;;;4897445;29;20332;-62
2022/12/18 11:06:13;;;;;;;49.88;25.17;;;;;;;;;;4897282;29;20076;-59
2022/12/18 11:08:41;;;;;;;45.97;25.27;;;;;;;;;;4897325;29;20044;-61
2022/12/18 11:11:21;;;;;;;45.58;23.95;;;;;;;;;;4880492;29;20053;-61
2022/12/18 11:13:58;;;;;;;44.45;23.33;;;;;;;;;;4897269;29;20040;-61
2022/12/18 11:16:26;;;;;;;46.83;25.80;;;;;;;;;;4896634;29;20565;-62
2022/12/18 11:18:52;;;;;;;45.33;25.90;;;;;;;;;;4897205;29;20563;-61
2022/12/18 11:21:18;;;;;;;45.35;24.10;;;;;;;;;;4897401;29;20096;-61
2022/12/18 11:23:52;;;;;;;43.20;22.90;;;;;;;;;;4897143;29;20561;-60
2022/12/18 11:26:19;;;;;;;45.95;25.30;;;;;;;;;;4896535;29;20049;-60
2022/12/18 11:28:50;;;;;;;55.42;28.55;;;;;;;;;;4896989;29;20108;-61
2022/12/18 11:31:21;;;;;;;49.28;24.98;;;;;;;;;;4896910;29;20044;-61
2022/12/18 11:34:00;;;;;;;42.53;23.52;;;;;;;;;;4880127;29;20070;-60
2022/12/18 11:36:47;;;;;;;42.10;24.27;;;;;;;;;;4896257;29;20514;-61
2022/12/18 11:39:26;;;;;;;43.97;24.58;;;;;;;;;;4880747;29;20413;-62
2022/12/18 11:42:11;;;;;;;44.92;22.95;;;;;;;;;;4897032;29;20057;-62
2022/12/18 11:44:38;;;;;;;44.00;24.58;;;;;;;;;;4896990;29;20052;-61
2022/12/18 11:47:09;;;;;;;46.72;25.10;;;;;;;;;;4896310;29;20112;-59
2022/12/18 11:49:36;;;;;;;45.15;22.77;;;;;;;;;;4880273;29;20462;-61
2022/12/18 11:52:20;;;;;;;42.95;24.10;;;;;;;;;;4880461;29;20044;-61
2022/12/18 11:54:50;;;;;;;43.78;23.58;;;;;;;;;;4897170;29;20088;-61
2022/12/18 11:57:30;;;;;;;40.60;23.98;;;;;;;;;;4896858;29;20041;-61
2022/12/18 12:00:09;;;;;;;48.45;24.23;;;;;;;;;;4897351;29;20063;-60
2022/12/18 12:02:59;;;;;;;51.45;24.02;;;;;;;;;;4897081;29;20041;-61
2022/12/18 12:05:41;;;;;;;47.70;25.25;;;;;;;;;;4896738;29;20052;-61
2022/12/18 12:08:15;;;;;;;43.60;23.30;;;;;;;;;;4897625;29;20036;-60
2022/12/18 12:10:47;;;;;;;46.30;23.58;;;;;;;;;;4900576;29;20070;-60
2022/12/18 12:13:40;;;;;;;47.30;24.83;;;;;;;;;;4901035;29;20468;-61
2022/12/18 12:16:11;;;;;;;49.28;23.40;;;;;;;;;;4897810;29;20060;-61
2022/12/18 12:18:49;;;;;;;54.83;27.17;;;;;;;;;;4883444;29;20561;-61
2022/12/18 12:21:37;;;;;;;48.53;24.63;;;;;;;;;;4883379;29;20437;-61
2022/12/18 12:24:09;;;;;;;45.20;24.33;;;;;;;;;;4899958;29;20549;-61
2022/12/18 12:26:43;;;;;;;42.63;22.80;;;;;;;;;;4899361;29;20104;-60
2022/12/18 12:29:18;;;;;;;46.53;25.30;;;;;;;;;;4883348;29;20466;-61
2022/12/18 12:31:57;;;;;;;47.42;24.25;;;;;;;;;;4900657;29;20048;-61
2022/12/18 12:34:23;;;;;;;46.05;24.90;;;;;;;;;;4900288;29;20072;-61
2022/12/18 12:36:54;;;;;;;46.05;24.05;;;;;;;;;;4899585;29;20072;-61
2022/12/18 12:39:24;;;;;;;40.05;21.92;;;;;;;;;;4900979;29;20413;-61
2022/12/18 12:44:44;;;;;;;43.33;21.95;;;;;;;;;;4901550;29;20052;-60
2022/12/18 12:47:33;;;;;;;40.58;22.73;;;;;;;;;;4900972;29;20056;-61
2022/12/18 12:50:01;;;;;;;42.40;22.73;;;;;;;;;;4901275;29;20106;-60
2022/12/18 12:52:29;;;;;;;44.08;23.98;;;;;;;;;;4901561;29;20048;-60
2022/12/18 12:54:56;;;;;;;49.28;24.52;;;;;;;;;;4901226;29;20100;-60
2022/12/18 12:57:43;;;;;;;44.50;23.95;;;;;;;;;;4884593;29;20052;-61
2022/12/18 13:00:12;;;;;;;41.00;21.65;;;;;;;;;;4901323;29;20052;-61
2022/12/18 13:02:47;;;;;;;46.38;24.13;;;;;;;;;;4884701;29;20060;-61
2022/12/18 13:05:21;;;;;;;41.88;22.90;;;;;;;;;;4884196;29;20052;-61
2022/12/18 13:07:50;;;;;;;50.23;26.37;;;;;;;;;;4900926;29;20053;-62
2022/12/18 13:10:19;;;;;;;79.32;36.58;;;;;;;;;;4900672;29;20485;-62
2022/12/18 13:12:58;;;;;;;63.88;31.58;;;;;;;;;;4901143;29;20067;-62
2022/12/18 13:15:43;;;;;;;55.65;28.38;;;;;;;;;;4899541;29;20041;-60
2022/12/18 13:18:11;;;;;;;41.05;23.98;;;;;;;;;;4900261;29;20416;-60
2022/12/18 13:20:38;;;;;;;42.60;22.40;;;;;;;;;;4883506;29;20060;-60
2022/12/18 13:23:23;;;;;;;43.55;23.48;;;;;;;;;;4900530;29;20059;-60
2022/12/18 13:25:51;;;;;;;46.13;23.85;;;;;;;;;;4900076;29;20045;-60
2022/12/18 13:28:41;;;;;;;42.47;22.33;;;;;;;;;;4899605;29;20100;-60
2022/12/18 13:31:07;;;;;;;44.80;22.10;;;;;;;;;;4891869;29;20052;-60
2022/12/18 13:33:41;;;;;;;40.45;22.55;;;;;;;;;;4900325;29;20052;-60
2022/12/18 13:36:29;;;;;;;41.63;22.87;;;;;;;;;;4899150;29;20053;-60
2022/12/18 13:39:11;;;;;;;43.05;23.20;;;;;;;;;;4899381;29;20052;-60
2022/12/18 13:41:37;;;;;;;43.45;23.02;;;;;;;;;;4899468;29;20421;-61
2022/12/18 13:44:23;;;;;;;44.25;23.10;;;;;;;;;;4899308;29;20107;-61
2022/12/18 13:46:51;;;;;;;47.20;22.80;;;;;;;;;;4881717;29;20052;-61
2022/12/18 13:49:22;;;;;;;46.53;24.10;;;;;;;;;;4899099;29;20390;-61
2022/12/18 13:51:50;;;;;;;45.53;23.63;;;;;;;;;;4898682;29;20040;-62
2022/12/18 13:54:27;;;;;;;48.33;24.38;;;;;;;;;;4898736;29;20458;-61
2022/12/18 13:56:54;;;;;;;43.70;23.17;;;;;;;;;;4898354;29;20044;-61
2022/12/18 13:59:25;;;;;;;45.08;23.35;;;;;;;;;;4898604;29;20092;-61
2022/12/18 14:01:55;;;;;;;43.40;22.73;;;;;;;;;;4898125;29;20100;-61
2022/12/18 14:04:22;;;;;;;61.45;29.00;;;;;;;;;;4881832;29;20459;-61
2022/12/18 14:06:49;;;;;;;58.65;29.63;;;;;;;;;;4881327;29;20065;-61
2022/12/18 14:09:22;;;;;;;44.88;23.27;;;;;;;;;;4898312;29;20079;-61
2022/12/18 14:11:49;;;;;;;45.88;23.20;;;;;;;;;;4898656;29;20041;-60
2022/12/18 14:14:17;;;;;;;48.55;24.48;;;;;;;;;;4898543;29;20037;-62
2022/12/18 14:16:45;;;;;;;42.00;22.10;;;;;;;;;;4865657;29;20056;-60
2022/12/18 14:19:16;;;;;;;40.00;22.27;;;;;;;;;;4881600;29;20516;-60
2022/12/18 14:21:49;;;;;;;41.33;22.05;;;;;;;;;;4881734;29;20494;-63
2022/12/18 14:24:20;;;;;;;47.85;24.40;;;;;;;;;;4882609;29;20410;-61
2022/12/18 14:26:48;;;;;;;43.67;23.17;;;;;;;;;;4898631;29;20041;-61
2022/12/18 14:29:29;;;;;;;43.15;23.23;;;;;;;;;;4898676;29;20100;-60
2022/12/18 14:32:16;;;;;;;103.32;46.50;;;;;;;;;;4880989;29;20140;-61
2022/12/18 14:34:51;;;;;;;45.08;24.33;;;;;;;;;;4898450;29;20521;-61
2022/12/18 14:37:21;;;;;;;61.60;29.55;;;;;;;;;;4898234;29;20055;-60
2022/12/18 14:39:54;;;;;;;83.53;36.25;;;;;;;;;;4898049;29;20497;-61
2022/12/18 14:42:21;;;;;;;93.53;40.17;;;;;;;;;;4897892;29;20513;-60